KOPF/OPF METAR and TAF weather

Enter ICAO airport designator
Station Type Date Time Source
KOPF METAR 2019/07/18 10:53 UTC NOAA

KOPF 181053Z 15006KT 10SM CLR 28/24 A3007 RMK AO2 LTG DSNT SW RAB08E17 SLP184 P0000 T02830239


Station Type Date Time Source
KOPF Decoded METAR 2019/07/18 10:53 UTC NOAA

MIAMI OPA LOCKA AIRPORT, FL, United States (KOPF) 25-54N 80-17W 16M
Jul 18, 2019 - 06:53 AM EDT / 2019.07.18 1053 UTC
Wind: from the SSE (150 degrees) at 7 MPH (6 KT):0
Visibility: 10 mile(s):0
Sky conditions: clear
Weather: Lightning observed
Precipitation last hour: A trace
Temperature: 82.9 F (28.3 C)
Dew Point: 75.0 F (23.9 C)
Relative Humidity: 77%
Pressure (altimeter): 30.07 in. Hg (1018 hPa)
ob: KOPF 181053Z 15006KT 10SM CLR 28/24 A3007 RMK AO2 LTG DSNT SW RAB08E17 SLP184 P0000 T02830239
cycle: 11

Station Type Date Time Source
KOPF TAF 2019/07/18 09:09 UTC NOAA

TAF
AMD KOPF 180906Z 1809/1906 11006KT P6SM VCSH SCT025 SCT050
FM181500 13010KT P6SM SCT030 SCT250
FM190100 11006KT P6SM SCT025 SCT250

Example: see airport list